Capitol Logistics 978


HKJK
Jomo Kenyatta International Airport
Nairobi, KE
HTZA
Abeid Amani Karume International Airport
Zanzibar, TZ

Activity Log

Date Flight Route Aircraft Duration
03/30/2020 CPX978 STON1D GABSO GABSO UT913 EGPET B763 1h 15m
12/19/2019 CPX978 ATUD1D UVOVA GABSO UL445 GEREN B763 1h 12m
11/12/2019 CPX978 Not Available B763 1h 01m

Route Details

Aircraft Information
Primary: Boeing 767-300BDSF
Backup: Not Available
Route Data
Distance: 323nm
Sched. Duration: 0h 45m
Avg. Duration: 1h 09m (+65m)
Times Flown: 3
Recm'd Route: Not Available
Planned Altitude: 31,000ft
Origin Wx: HKJK 290200Z 19005KT 9999 FEW017 16/15 Q1022 NOSIG
Dest. Wx: HTZA 290200Z 00000KT 9999 FEW014 24/22 Q1014 NOSIG
Notes:

Financial History
Total Freight: 221,310lbs
Average Load: 73,770lbs/flt
Fuel Used: 31,759lbs
Avg. Fuel Used: 10,586lbs/flt
Fuel Expense: $26,678
Avg. Fuel Expense: $8,893
Avg. Fuel Cost: $0.84/lbs
Total Gross Income: $2,173,264
Pilot Pay: $567
Total Expenses: $234,869
Total Revenue: $1,911,021
Average Revenue: $724,421.41